Time;durP1;ratioP1;P1;durP2;ratioP2;P2;SDS_P1;SDS_P2;PMS_P1;PMS_P2;Temp;Humidity;BMP_temperature;BMP_pressure;BME280_temperature;BME280_humidity;BME280_pressure;Samples;Min_cycle;Max_cycle;Signal;HPM_P1;HPM_P2
2023/01/29 00:01:27;;;;;;;11.13;7.60;;;4.90;99.90;;;;;;5086795;28;20056;-70
2023/01/29 00:03:53;;;;;;;11.77;6.95;;;5.00;99.90;;;;;;5100498;28;20138;-70
2023/01/29 00:06:19;;;;;;;10.35;7.68;;;5.00;99.90;;;;;;5099825;28;20043;-70
2023/01/29 00:08:46;;;;;;;9.20;6.97;;;5.00;99.90;;;;;;5088987;28;20044;-70
2023/01/29 00:11:12;;;;;;;9.50;6.90;;;5.00;99.90;;;;;;5099876;28;20068;-71
2023/01/29 00:13:38;;;;;;;10.70;7.68;;;5.00;99.90;;;;;;5091600;28;20051;-69
2023/01/29 00:16:04;;;;;;;9.77;7.13;;;5.00;99.90;;;;;;5096842;28;20051;-71
2023/01/29 00:18:30;;;;;;;16.80;8.60;;;5.00;99.90;;;;;;5082701;28;20071;-70
2023/01/29 00:20:56;;;;;;;11.10;8.23;;;5.00;99.90;;;;;;5099355;28;20039;-70
2023/01/29 00:23:21;;;;;;;13.73;8.35;;;5.00;99.90;;;;;;5100843;28;20096;-70
2023/01/29 00:25:47;;;;;;;10.73;9.18;;;5.00;99.90;;;;;;5097405;28;20792;-69
2023/01/29 00:28:13;;;;;;;12.55;8.93;;;5.00;99.90;;;;;;5099216;28;20055;-70
2023/01/29 00:30:39;;;;;;;11.85;9.40;;;5.00;99.90;;;;;;5099438;28;20634;-70
2023/01/29 00:33:05;;;;;;;11.98;8.55;;;5.00;99.90;;;;;;5100834;28;20040;-71
2023/01/29 00:35:31;;;;;;;13.30;9.77;;;5.00;99.90;;;;;;5098901;28;20477;-71
2023/01/29 00:37:57;;;;;;;14.13;9.73;;;5.00;99.90;;;;;;5092301;28;20478;-71
2023/01/29 00:40:24;;;;;;;14.38;9.20;;;5.00;99.90;;;;;;5094764;28;20055;-70
2023/01/29 00:45:38;;;;;;;16.70;10.35;;;5.00;99.90;;;;;;5088372;28;20925;-70
2023/01/29 00:48:04;;;;;;;20.45;10.63;;;5.00;99.90;;;;;;5091048;28;20055;-71
2023/01/29 00:50:30;;;;;;;16.75;10.45;;;4.90;99.90;;;;;;5087309;28;20487;-70
2023/01/29 00:52:56;;;;;;;15.27;10.23;;;4.90;99.90;;;;;;5085222;28;20180;-71
2023/01/29 00:55:22;;;;;;;15.27;10.85;;;4.90;99.90;;;;;;5086407;28;20433;-70
2023/01/29 00:57:48;;;;;;;13.52;9.75;;;4.90;99.90;;;;;;5089034;28;20495;-70
2023/01/29 01:00:16;;;;;;;14.07;11.00;;;5.00;99.90;;;;;;5099426;28;20081;-71
2023/01/29 01:05:27;;;;;;;14.93;11.90;;;4.90;99.90;;;;;;5089133;28;20044;-71
2023/01/29 01:07:55;;;;;;;13.43;10.98;;;5.00;99.90;;;;;;5094656;28;20055;-71
2023/01/29 01:10:23;;;;;;;16.75;11.05;;;5.00;99.90;;;;;;5093371;28;20043;-69
2023/01/29 01:12:54;;;;;;;15.80;11.95;;;4.90;99.90;;;;;;5094966;28;20081;-69
2023/01/29 01:15:21;;;;;;;13.20;9.88;;;4.90;99.90;;;;;;5093073;28;20124;-71
2023/01/29 01:17:50;;;;;;;16.13;11.20;;;5.00;99.90;;;;;;5095535;28;20040;-70
2023/01/29 01:20:16;;;;;;;13.82;10.25;;;5.00;99.90;;;;;;5095093;28;20101;-71
2023/01/29 01:22:42;;;;;;;13.90;10.90;;;5.00;99.90;;;;;;5092822;28;21547;-72
2023/01/29 01:25:08;;;;;;;16.50;10.75;;;5.00;99.90;;;;;;5097217;28;20043;-70
2023/01/29 01:27:36;;;;;;;14.48;10.95;;;5.00;99.90;;;;;;5084158;28;20048;-71
2023/01/29 01:30:03;;;;;;;16.25;10.73;;;5.10;99.90;;;;;;5095235;28;20122;-72
2023/01/29 01:32:28;;;;;;;15.18;10.88;;;5.10;99.90;;;;;;5094440;28;20510;-71
2023/01/29 01:34:54;;;;;;;15.07;12.05;;;5.10;99.90;;;;;;5092769;28;20043;-70
2023/01/29 01:37:20;;;;;;;13.93;10.70;;;5.10;99.90;;;;;;5091937;28;20079;-70
2023/01/29 01:39:47;;;;;;;15.38;11.75;;;5.20;99.90;;;;;;5091672;28;20056;-70
2023/01/29 01:42:13;;;;;;;13.73;10.98;;;5.10;99.90;;;;;;5089904;28;20056;-70
2023/01/29 01:44:59;;;;;;;17.70;11.73;;;5.10;99.90;;;;;;5094507;28;20044;-70
2023/01/29 01:47:40;;;;;;;17.90;12.57;;;5.20;99.90;;;;;;5093445;28;20047;-70
2023/01/29 01:50:11;;;;;;;13.73;12.10;;;5.20;99.90;;;;;;5088837;28;21615;-70
2023/01/29 01:52:44;;;;;;;20.77;13.75;;;5.10;99.90;;;;;;5087729;28;20036;-71
2023/01/29 01:55:13;;;;;;;19.05;13.40;;;5.20;99.90;;;;;;5087926;28;20048;-70
2023/01/29 01:57:41;;;;;;;15.57;11.20;;;5.20;99.90;;;;;;5093355;28;20043;-70
2023/01/29 02:00:11;;;;;;;19.42;14.10;;;5.20;99.90;;;;;;5086813;28;20359;-73
2023/01/29 02:10:54;;;;;;;17.80;12.82;;;5.20;99.90;;;;;;5095033;28;20059;-70
2023/01/29 02:13:20;;;;;;;18.20;14.10;;;5.20;99.90;;;;;;5091369;28;20043;-70
2023/01/29 02:15:47;;;;;;;20.13;12.85;;;5.20;99.90;;;;;;5096976;28;20086;-71
2023/01/29 02:18:19;;;;;;;19.80;13.57;;;5.20;99.90;;;;;;5098161;27;20040;-70
2023/01/29 02:21:28;;;;;;;15.95;12.60;;;5.20;99.90;;;;;;5098777;28;20828;-69
2023/01/29 02:24:02;;;;;;;18.75;13.88;;;5.20;99.90;;;;;;5097395;27;20054;-69
2023/01/29 02:26:52;;;;;;;19.05;14.10;;;5.20;99.90;;;;;;5100113;28;20066;-71
2023/01/29 02:29:38;;;;;;;19.20;14.00;;;5.20;99.90;;;;;;5098704;28;20043;-71
2023/01/29 02:32:53;;;;;;;18.50;13.30;;;5.30;99.90;;;;;;5097921;28;20096;-69
2023/01/29 02:36:02;;;;;;;19.10;14.10;;;5.20;99.90;;;;;;5096387;28;20052;-71
2023/01/29 02:38:38;;;;;;;20.08;14.07;;;5.20;99.90;;;;;;5062358;28;20509;-70
2023/01/29 02:41:19;;;;;;;17.85;14.00;;;5.20;99.90;;;;;;5091844;28;20052;-71
2023/01/29 02:44:00;;;;;;;15.00;12.98;;;5.20;99.90;;;;;;5094478;28;20104;-70
2023/01/29 02:46:54;;;;;;;16.45;13.63;;;5.10;99.90;;;;;;5081668;28;20060;-72
2023/01/29 02:49:30;;;;;;;21.27;16.02;;;5.10;99.90;;;;;;5099745;28;20824;-70
2023/01/29 02:52:06;;;;;;;23.65;14.93;;;5.10;99.90;;;;;;5095763;28;20047;-70
2023/01/29 02:55:16;;;;;;;20.90;14.23;;;5.10;99.90;;;;;;5099175;28;20052;-70
2023/01/29 02:57:45;;;;;;;18.73;14.52;;;5.10;99.90;;;;;;5037087;28;20455;-70
2023/01/29 03:00:21;;;;;;;18.90;14.52;;;5.00;99.90;;;;;;5034771;28;20045;-70
2023/01/29 03:03:10;;;;;;;19.25;14.52;;;5.10;99.90;;;;;;5070247;28;20228;-71
2023/01/29 03:05:58;;;;;;;17.13;12.98;;;5.10;99.90;;;;;;5098772;28;20682;-69
2023/01/29 03:08:44;;;;;;;15.10;12.68;;;5.00;99.90;;;;;;5096981;28;20040;-70
2023/01/29 03:11:14;;;;;;;18.38;14.10;;;5.00;99.90;;;;;;5098898;28;20048;-71
2023/01/29 03:14:02;;;;;;;16.45;12.75;;;5.00;99.90;;;;;;5097779;28;20052;-72
2023/01/29 03:16:39;;;;;;;16.13;12.63;;;5.10;99.90;;;;;;5099592;28;20580;-71
2023/01/29 03:19:15;;;;;;;19.40;13.30;;;5.00;99.90;;;;;;5097257;28;20048;-70
2023/01/29 03:21:57;;;;;;;16.58;12.70;;;5.00;99.90;;;;;;5100546;28;20131;-70
2023/01/29 03:33:10;;;;;;;17.63;13.32;;;5.10;99.90;;;;;;5096366;28;20063;-70
2023/01/29 03:35:46;;;;;;;17.13;13.38;;;5.10;99.90;;;;;;5094478;28;20104;-70
2023/01/29 03:38:11;;;;;;;18.20;13.30;;;5.10;99.90;;;;;;5094747;28;20047;-70
2023/01/29 03:41:06;;;;;;;18.80;14.13;;;5.10;99.90;;;;;;5100965;28;20141;-70
2023/01/29 03:43:53;;;;;;;18.70;14.02;;;5.20;99.90;;;;;;5083336;28;20063;-70
2023/01/29 03:46:31;;;;;;;20.80;14.25;;;5.20;99.90;;;;;;5098199;28;20489;-70
2023/01/29 03:49:20;;;;;;;19.10;14.15;;;5.20;99.90;;;;;;5082361;28;20123;-70
2023/01/29 03:51:54;;;;;;;20.88;13.93;;;5.10;99.90;;;;;;5083724;28;20127;-70
2023/01/29 03:54:42;;;;;;;18.25;14.38;;;5.20;99.90;;;;;;5093688;28;20075;-70
2023/01/29 03:57:46;;;;;;;18.83;13.02;;;5.20;99.90;;;;;;5095244;28;20409;-69
2023/01/29 04:00:39;;;;;;;16.10;13.85;;;5.20;99.90;;;;;;5097217;28;20047;-71
2023/01/29 04:03:29;;;;;;;20.92;15.73;;;5.20;99.90;;;;;;5087215;28;20063;-71
2023/01/29 04:06:10;;;;;;;19.45;14.23;;;5.20;99.90;;;;;;5097937;28;20059;-70
2023/01/29 04:08:53;;;;;;;20.38;14.35;;;5.20;99.90;;;;;;5089914;28;20069;-70
2023/01/29 04:11:21;;;;;;;19.25;14.93;;;5.20;99.90;;;;;;5093594;28;20081;-70
2023/01/29 04:13:48;;;;;;;21.45;14.40;;;5.20;99.90;;;;;;5088016;27;20046;-72
2023/01/29 04:16:20;;;;;;;17.38;13.93;;;5.20;99.90;;;;;;5095402;28;20048;-72
2023/01/29 04:18:47;;;;;;;24.25;16.00;;;5.20;99.90;;;;;;5096392;28;20055;-70
2023/01/29 04:21:14;;;;;;;17.77;15.00;;;5.20;99.90;;;;;;5094903;28;20094;-69
2023/01/29 04:23:39;;;;;;;25.83;16.13;;;5.20;99.90;;;;;;5097457;28;20671;-71
2023/01/29 04:26:31;;;;;;;19.83;14.75;;;5.20;99.90;;;;;;5082233;28;20067;-70
2023/01/29 04:29:16;;;;;;;18.17;14.48;;;5.20;99.90;;;;;;5095057;28;20043;-70
2023/01/29 04:32:13;;;;;;;19.25;13.68;;;5.20;99.90;;;;;;5067733;28;20901;-71
2023/01/29 04:34:58;;;;;;;22.45;15.32;;;5.20;99.90;;;;;;5095644;28;20588;-71
2023/01/29 04:38:00;;;;;;;17.90;14.40;;;5.20;99.90;;;;;;5094733;28;20047;-71
2023/01/29 04:40:43;;;;;;;23.88;14.90;;;5.20;99.90;;;;;;5097461;28;20050;-70
2023/01/29 04:43:32;;;;;;;23.90;15.25;;;5.20;99.90;;;;;;5095278;28;20075;-70
2023/01/29 04:46:16;;;;;;;20.63;14.43;;;5.20;99.90;;;;;;5095353;28;20051;-69
2023/01/29 04:48:41;;;;;;;25.58;13.73;;;5.20;99.90;;;;;;5098819;28;20207;-71
2023/01/29 04:51:21;;;;;;;22.55;14.30;;;5.20;99.90;;;;;;5099923;28;20649;-70
2023/01/29 04:54:02;;;;;;;22.83;14.63;;;5.20;99.90;;;;;;5096652;28;20186;-70
2023/01/29 04:57:08;;;;;;;20.10;13.82;;;5.20;99.90;;;;;;5094206;28;20043;-70
2023/01/29 04:59:45;;;;;;;16.65;13.45;;;5.30;99.90;;;;;;5053132;28;20090;-73
2023/01/29 05:02:12;;;;;;;20.27;14.77;;;5.30;99.90;;;;;;5096759;28;20101;-70
2023/01/29 05:04:40;;;;;;;17.55;13.85;;;5.30;99.90;;;;;;5095555;28;20130;-70
2023/01/29 05:07:10;;;;;;;25.40;15.82;;;5.20;99.90;;;;;;5096966;28;20062;-70
2023/01/29 05:09:37;;;;;;;19.98;14.98;;;5.20;99.90;;;;;;5092784;28;21475;-70
2023/01/29 05:12:07;;;;;;;19.05;14.95;;;5.20;99.90;;;;;;5098714;28;20051;-70
2023/01/29 05:14:34;;;;;;;20.33;13.93;;;5.20;99.90;;;;;;5097670;28;20618;-70
2023/01/29 05:17:04;;;;;;;20.77;15.50;;;5.20;99.90;;;;;;5098488;28;20809;-71
2023/01/29 05:19:30;;;;;;;23.42;16.60;;;5.20;99.90;;;;;;5097208;28;20104;-72
2023/01/29 05:21:57;;;;;;;21.20;14.43;;;5.10;99.90;;;;;;5098676;28;20048;-70
2023/01/29 05:24:24;;;;;;;18.83;14.98;;;5.10;99.90;;;;;;5093111;28;20111;-70
2023/01/29 05:29:44;;;;;;;18.52;14.93;;;5.10;99.90;;;;;;5089734;28;20051;-73
2023/01/29 05:32:10;;;;;;;20.60;16.77;;;5.20;99.90;;;;;;5096021;28;20121;-70
2023/01/29 05:34:36;;;;;;;20.85;14.63;;;5.20;99.90;;;;;;5094482;28;20123;-71
2023/01/29 05:37:01;;;;;;;23.58;16.92;;;5.20;99.90;;;;;;5094342;28;20167;-70
2023/01/29 05:39:27;;;;;;;22.92;14.40;;;5.10;99.90;;;;;;5087846;28;20086;-71
2023/01/29 05:41:53;;;;;;;21.65;16.00;;;5.10;99.90;;;;;;5085855;28;20083;-70
2023/01/29 05:44:19;;;;;;;19.48;13.57;;;5.10;99.90;;;;;;5096804;28;20047;-70
2023/01/29 05:46:45;;;;;;;22.40;17.17;;;5.10;99.90;;;;;;5081321;28;20492;-71
2023/01/29 05:49:11;;;;;;;25.52;17.17;;;5.10;99.90;;;;;;5088359;28;20055;-71
2023/01/29 05:51:37;;;;;;;21.02;14.82;;;5.10;99.90;;;;;;5103117;28;20066;-70
2023/01/29 05:54:03;;;;;;;17.63;14.88;;;5.10;99.90;;;;;;5094229;28;20577;-70
2023/01/29 05:56:29;;;;;;;23.13;17.73;;;5.10;99.90;;;;;;5083699;28;20941;-69
2023/01/29 05:58:55;;;;;;;25.65;18.40;;;5.00;99.90;;;;;;5093156;28;20039;-69
2023/01/29 06:01:23;;;;;;;23.92;17.83;;;5.00;99.90;;;;;;5098306;28;20408;-70
2023/01/29 06:03:49;;;;;;;20.58;16.83;;;5.00;99.90;;;;;;5097550;28;20081;-70
2023/01/29 06:06:16;;;;;;;28.10;18.35;;;5.00;99.90;;;;;;5100522;28;20111;-70
2023/01/29 06:08:42;;;;;;;26.50;18.13;;;5.00;99.90;;;;;;5101019;28;20051;-70
2023/01/29 06:11:09;;;;;;;23.95;17.40;;;5.00;99.90;;;;;;5097761;28;21383;-69
2023/01/29 06:13:35;;;;;;;24.30;17.83;;;5.00;99.90;;;;;;5094272;28;20671;-69
2023/01/29 06:16:05;;;;;;;25.33;17.42;;;5.00;99.90;;;;;;5098485;28;20075;-70
2023/01/29 06:18:31;;;;;;;24.15;17.50;;;5.00;99.90;;;;;;5096712;28;20044;-70
2023/01/29 06:21:01;;;;;;;22.60;16.77;;;5.00;99.90;;;;;;5101512;28;20047;-70
2023/01/29 06:23:27;;;;;;;23.40;16.52;;;5.00;99.90;;;;;;5091489;28;20115;-71
2023/01/29 06:25:53;;;;;;;22.75;18.05;;;5.00;99.90;;;;;;5090480;28;20054;-72
2023/01/29 06:28:19;;;;;;;20.23;16.23;;;5.10;99.90;;;;;;5100233;28;20051;-71
2023/01/29 06:30:44;;;;;;;23.02;17.67;;;5.10;99.90;;;;;;5093438;28;20043;-70
2023/01/29 06:33:10;;;;;;;25.75;18.88;;;5.10;99.90;;;;;;5100807;28;20097;-70
2023/01/29 06:35:35;;;;;;;23.30;18.17;;;5.10;99.90;;;;;;5101814;27;20055;-70
2023/01/29 06:38:01;;;;;;;26.17;17.90;;;5.10;99.90;;;;;;5102253;28;20040;-70
2023/01/29 06:40:27;;;;;;;23.38;19.10;;;5.10;99.90;;;;;;5093808;28;20118;-70
2023/01/29 06:42:52;;;;;;;25.80;18.70;;;5.10;99.90;;;;;;5095280;28;20048;-70
2023/01/29 06:45:18;;;;;;;23.33;18.02;;;5.10;99.90;;;;;;5098176;28;20615;-70
2023/01/29 06:47:44;;;;;;;23.30;17.52;;;5.10;99.90;;;;;;5090732;28;20834;-70
2023/01/29 06:50:10;;;;;;;26.92;18.83;;;5.10;99.90;;;;;;5100440;28;20077;-71
2023/01/29 06:52:36;;;;;;;29.40;20.85;;;5.20;99.90;;;;;;5101521;28;20056;-70
2023/01/29 06:55:01;;;;;;;24.77;18.00;;;5.20;99.90;;;;;;5100157;28;20046;-71
2023/01/29 06:57:28;;;;;;;27.73;19.88;;;5.10;99.90;;;;;;5099847;28;20127;-70
2023/01/29 06:59:54;;;;;;;22.85;18.23;;;5.10;99.90;;;;;;5085202;28;20086;-71
2023/01/29 07:02:20;;;;;;;25.65;19.17;;;5.10;99.90;;;;;;5091784;28;20166;-70
2023/01/29 07:04:46;;;;;;;28.85;20.13;;;5.10;99.90;;;;;;5093643;28;20052;-71
2023/01/29 07:07:14;;;;;;;26.92;20.58;;;5.10;99.90;;;;;;5099436;28;20178;-70
2023/01/29 07:09:41;;;;;;;26.92;20.92;;;5.10;99.90;;;;;;5087774;28;20124;-69
2023/01/29 07:12:08;;;;;;;22.70;19.15;;;5.00;99.90;;;;;;5091279;28;20056;-70
2023/01/29 07:14:33;;;;;;;24.45;20.20;;;5.00;99.90;;;;;;5079802;28;20051;-71
2023/01/29 07:16:59;;;;;;;28.67;20.00;;;5.00;99.90;;;;;;5093916;28;20051;-69
2023/01/29 07:19:25;;;;;;;25.02;19.20;;;5.00;99.90;;;;;;5081347;28;20509;-69
2023/01/29 07:21:50;;;;;;;24.98;19.70;;;5.00;99.90;;;;;;5081744;28;20810;-69
2023/01/29 07:24:17;;;;;;;25.20;20.20;;;5.00;99.90;;;;;;5080989;28;20044;-69
2023/01/29 07:26:43;;;;;;;23.83;19.10;;;5.00;99.90;;;;;;5082113;28;20377;-71
2023/01/29 07:29:09;;;;;;;23.70;17.92;;;5.00;99.90;;;;;;5097079;28;20874;-70
2023/01/29 07:31:34;;;;;;;23.00;18.85;;;4.90;99.90;;;;;;5101125;28;20046;-69
2023/01/29 07:34:00;;;;;;;25.92;19.50;;;4.90;99.90;;;;;;5094990;28;20502;-69
2023/01/29 07:36:27;;;;;;;25.88;19.92;;;4.90;99.90;;;;;;5094418;28;20082;-69
2023/01/29 07:38:52;;;;;;;29.33;20.20;;;4.90;99.90;;;;;;5091001;28;20132;-70
2023/01/29 07:41:18;;;;;;;23.55;18.25;;;4.90;99.90;;;;;;5088093;28;20466;-70
2023/01/29 07:43:44;;;;;;;29.05;21.92;;;4.90;99.90;;;;;;5096212;28;20473;-70
2023/01/29 07:46:10;;;;;;;28.38;21.05;;;4.90;99.90;;;;;;5087428;28;20129;-72
2023/01/29 07:48:36;;;;;;;26.83;21.33;;;4.90;99.90;;;;;;5088151;28;20484;-69
2023/01/29 07:51:02;;;;;;;27.40;19.55;;;4.90;99.90;;;;;;5100847;28;20039;-69
2023/01/29 07:53:28;;;;;;;25.85;19.83;;;4.80;99.90;;;;;;5098475;28;20511;-71
2023/01/29 07:55:53;;;;;;;29.50;20.65;;;4.90;99.90;;;;;;5098633;28;20359;-69
2023/01/29 07:58:19;;;;;;;23.38;20.10;;;4.80;99.90;;;;;;5097611;28;20525;-70
2023/01/29 08:00:45;;;;;;;26.25;19.90;;;4.90;99.90;;;;;;5101106;28;20055;-70
2023/01/29 08:03:15;;;;;;;29.13;21.27;;;4.90;99.90;;;;;;5082358;28;20145;-70
2023/01/29 08:05:41;;;;;;;25.02;20.35;;;4.90;99.90;;;;;;5096059;28;20167;-70
2023/01/29 08:08:07;;;;;;;26.95;20.88;;;4.90;99.90;;;;;;5094987;28;20051;-70
2023/01/29 08:10:37;;;;;;;24.85;18.23;;;5.00;99.90;;;;;;5085523;28;20044;-69
2023/01/29 08:13:04;;;;;;;23.60;18.75;;;5.00;99.90;;;;;;5099677;28;20052;-69
2023/01/29 08:15:31;;;;;;;25.27;17.83;;;5.00;99.90;;;;;;5092032;28;20059;-69
2023/01/29 08:17:56;;;;;;;25.17;19.08;;;5.00;99.90;;;;;;5090903;28;20047;-69
2023/01/29 08:20:22;;;;;;;23.98;19.55;;;5.00;99.90;;;;;;5082364;28;20048;-70
2023/01/29 08:22:48;;;;;;;22.27;19.77;;;5.10;99.90;;;;;;5085117;28;20044;-69
2023/01/29 08:25:15;;;;;;;23.95;18.95;;;5.10;99.90;;;;;;5085051;28;20047;-70
2023/01/29 08:27:41;;;;;;;27.10;19.60;;;5.10;99.90;;;;;;5100206;28;20039;-70
2023/01/29 08:30:08;;;;;;;26.85;20.67;;;5.20;99.90;;;;;;5089229;28;20127;-70
2023/01/29 08:32:34;;;;;;;26.83;20.13;;;5.20;99.90;;;;;;5093102;28;20052;-70
2023/01/29 08:35:00;;;;;;;24.83;18.83;;;5.20;99.90;;;;;;5096030;28;20982;-72
2023/01/29 08:37:25;;;;;;;27.42;18.67;;;5.30;99.90;;;;;;5081191;28;20055;-70
2023/01/29 08:39:51;;;;;;;27.83;19.45;;;5.20;99.90;;;;;;5083345;28;20112;-71
2023/01/29 08:42:17;;;;;;;24.42;19.83;;;5.20;99.90;;;;;;5098304;28;20054;-70
2023/01/29 08:44:42;;;;;;;26.63;20.23;;;5.20;99.90;;;;;;5082319;28;20070;-69
2023/01/29 08:47:08;;;;;;;26.20;20.00;;;5.20;99.90;;;;;;5096304;28;20051;-69
2023/01/29 08:49:34;;;;;;;24.70;19.65;;;5.20;99.90;;;;;;5095826;28;20646;-71
2023/01/29 08:51:59;;;;;;;22.77;20.08;;;5.30;99.90;;;;;;5091771;28;20047;-69
2023/01/29 08:54:25;;;;;;;28.73;21.65;;;5.20;99.90;;;;;;5062467;28;20051;-71
2023/01/29 08:56:51;;;;;;;25.70;21.00;;;5.30;99.90;;;;;;5096444;28;20071;-71
2023/01/29 08:59:17;;;;;;;31.05;21.50;;;5.30;99.90;;;;;;5094024;28;20147;-70
2023/01/29 09:01:43;;;;;;;33.55;20.73;;;5.30;99.90;;;;;;5095594;28;20049;-70
2023/01/29 09:04:09;;;;;;;38.13;21.58;;;5.30;99.90;;;;;;5094851;28;20047;-71
2023/01/29 09:06:34;;;;;;;29.38;21.83;;;5.30;99.90;;;;;;5096589;28;20040;-70
2023/01/29 09:09:00;;;;;;;31.98;20.73;;;5.40;99.90;;;;;;5084859;28;20040;-70
2023/01/29 09:11:26;;;;;;;29.35;21.60;;;5.40;99.90;;;;;;5096949;28;20051;-70
2023/01/29 09:13:51;;;;;;;34.25;22.48;;;5.50;99.90;;;;;;5094891;28;20064;-69
2023/01/29 09:16:17;;;;;;;30.60;22.23;;;5.50;99.90;;;;;;5096422;28;20035;-69
2023/01/29 09:18:43;;;;;;;30.17;21.45;;;5.50;99.90;;;;;;5095432;28;20132;-72
2023/01/29 09:21:09;;;;;;;28.50;20.75;;;5.60;99.90;;;;;;5097025;28;20473;-70
2023/01/29 09:23:35;;;;;;;29.98;20.92;;;5.60;99.90;;;;;;5098727;28;20104;-70
2023/01/29 09:26:00;;;;;;;27.02;19.50;;;5.70;99.90;;;;;;5102971;28;20088;-70
2023/01/29 09:28:26;;;;;;;30.15;22.55;;;5.70;99.90;;;;;;5099080;28;20051;-69
2023/01/29 09:30:52;;;;;;;30.05;20.23;;;5.70;99.90;;;;;;5095624;28;20040;-72
2023/01/29 09:33:17;;;;;;;32.15;21.63;;;5.80;99.90;;;;;;5098104;28;20134;-70
2023/01/29 09:35:46;;;;;;;27.38;20.40;;;5.80;99.90;;;;;;5100467;28;20112;-71
2023/01/29 09:38:12;;;;;;;31.15;21.70;;;5.70;99.90;;;;;;5096646;28;20829;-70
2023/01/29 09:40:50;;;;;;;28.88;21.83;;;5.70;99.90;;;;;;5095470;28;20043;-71
2023/01/29 09:43:22;;;;;;;26.90;19.83;;;5.70;99.90;;;;;;5097136;28;20229;-69
2023/01/29 09:45:59;;;;;;;29.65;20.25;;;5.70;99.90;;;;;;5099419;28;20052;-70
2023/01/29 09:48:28;;;;;;;34.47;21.98;;;5.70;99.90;;;;;;5101001;28;20059;-72
2023/01/29 09:50:56;;;;;;;31.58;21.20;;;5.80;99.90;;;;;;5101583;28;20050;-70
2023/01/29 09:53:37;;;;;;;36.53;20.83;;;5.80;99.90;;;;;;5099183;28;20174;-70
2023/01/29 09:56:10;;;;;;;28.83;20.52;;;5.90;99.90;;;;;;5099966;28;20052;-71
2023/01/29 09:58:37;;;;;;;;;;;5.90;99.90;;;;;;5101178;28;20047;-71
2023/01/29 10:01:14;;;;;;;33.65;21.45;;;5.90;99.90;;;;;;5097705;28;19928;-72
2023/01/29 10:04:18;;;;;;;31.50;21.08;;;5.90;99.90;;;;;;5097951;28;20042;-70
2023/01/29 10:06:43;;;;;;;30.02;20.77;;;5.90;99.90;;;;;;5100935;28;20055;-70
2023/01/29 10:09:52;;;;;;;32.53;21.00;;;5.90;99.90;;;;;;5100485;28;20048;-70
2023/01/29 10:13:06;;;;;;;29.05;22.05;;;5.90;99.90;;;;;;5098826;28;20093;-70
2023/01/29 10:15:35;;;;;;;27.67;19.17;;;5.90;99.90;;;;;;5027328;28;20053;-71
2023/01/29 10:18:03;;;;;;;30.45;20.50;;;5.90;99.90;;;;;;5099336;28;20101;-70
2023/01/29 10:20:43;;;;;;;31.25;21.00;;;6.00;99.90;;;;;;5101923;28;20109;-72
2023/01/29 10:23:32;;;;;;;28.77;20.77;;;6.00;99.90;;;;;;5102530;28;20123;-70
2023/01/29 10:25:58;;;;;;;28.10;19.30;;;6.00;99.90;;;;;;5097037;28;20047;-72
2023/01/29 10:28:45;;;;;;;34.05;22.00;;;5.90;99.90;;;;;;5096866;28;20159;-70
2023/01/29 10:31:38;;;;;;;32.15;20.45;;;5.90;99.90;;;;;;5094505;28;20043;-72
2023/01/29 10:34:09;;;;;;;28.65;19.95;;;5.80;99.90;;;;;;5092640;28;20048;-70
2023/01/29 10:36:41;;;;;;;29.20;21.48;;;5.80;99.90;;;;;;5091304;28;20063;-69
2023/01/29 10:39:29;;;;;;;29.42;19.85;;;5.80;99.90;;;;;;5093497;27;20077;-72
2023/01/29 10:42:19;;;;;;;31.70;21.88;;;5.90;99.90;;;;;;5086366;28;20049;-71
2023/01/29 10:45:03;;;;;;;31.45;21.95;;;5.80;99.90;;;;;;5091692;28;20421;-71
2023/01/29 10:47:48;;;;;;;32.00;23.17;;;5.80;99.90;;;;;;5084548;28;20063;-70
2023/01/29 10:50:22;;;;;;;32.88;22.40;;;5.80;99.90;;;;;;5087298;28;20058;-70
2023/01/29 10:53:23;;;;;;;31.85;22.00;;;5.80;99.90;;;;;;5097245;28;20504;-69
2023/01/29 10:56:16;;;;;;;30.45;20.92;;;5.80;99.90;;;;;;5085726;28;20081;-73
2023/01/29 10:58:53;;;;;;;27.90;20.13;;;5.80;99.90;;;;;;5084850;28;20044;-71
2023/01/29 11:01:19;;;;;;;30.65;21.77;;;5.80;99.90;;;;;;5093345;28;20568;-71
2023/01/29 11:03:45;;;;;;;30.88;20.38;;;5.80;99.90;;;;;;5097656;28;20047;-70
2023/01/29 11:06:22;;;;;;;33.13;21.90;;;5.70;99.90;;;;;;5095351;28;20086;-70
2023/01/29 11:09:07;;;;;;;34.25;22.85;;;5.80;99.90;;;;;;5093990;28;20048;-70
2023/01/29 11:11:53;;;;;;;35.88;23.00;;;5.80;99.90;;;;;;5098088;28;20120;-69
2023/01/29 11:14:43;;;;;;;36.00;22.63;;;5.80;99.90;;;;;;5083501;28;20545;-72
2023/01/29 11:17:22;;;;;;;39.10;24.33;;;5.90;99.90;;;;;;5095445;28;20138;-70
2023/01/29 11:19:54;;;;;;;33.20;23.65;;;5.90;99.90;;;;;;5095529;28;20104;-71
2023/01/29 11:22:29;;;;;;;29.48;20.95;;;5.80;99.90;;;;;;5096811;28;20057;-71
2023/01/29 11:25:26;;;;;;;35.35;24.63;;;5.80;99.90;;;;;;5096676;28;20032;-70
2023/01/29 11:28:00;;;;;;;33.78;22.20;;;5.80;99.90;;;;;;5081427;28;20066;-70
2023/01/29 11:30:34;;;;;;;33.90;24.80;;;5.80;99.90;;;;;;5092448;28;20060;-70
2023/01/29 11:33:20;;;;;;;34.97;22.38;;;5.80;99.90;;;;;;5096681;28;20044;-71
2023/01/29 11:35:46;;;;;;;33.83;23.83;;;5.90;99.90;;;;;;5097070;28;20058;-71
2023/01/29 11:38:15;;;;;;;30.88;21.67;;;5.90;99.90;;;;;;5095191;28;20047;-70
2023/01/29 11:40:42;;;;;;;32.63;21.90;;;5.90;99.90;;;;;;5094059;28;20043;-70
2023/01/29 11:43:31;;;;;;;32.00;23.33;;;5.90;99.90;;;;;;5096035;28;20044;-70
2023/01/29 11:46:03;;;;;;;32.72;20.25;;;6.40;99.90;;;;;;5085512;28;20051;-71
2023/01/29 11:48:43;;;;;;;36.93;23.50;;;5.90;99.90;;;;;;5093186;28;20321;-70
2023/01/29 11:51:12;;;;;;;34.22;22.23;;;5.90;99.90;;;;;;5092715;28;20134;-70
2023/01/29 11:53:41;;;;;;;33.55;23.40;;;5.80;99.90;;;;;;5093322;28;20062;-71
2023/01/29 11:56:31;;;;;;;34.33;23.65;;;5.90;99.90;;;;;;5094570;28;20571;-70
2023/01/29 11:58:57;;;;;;;33.80;23.50;;;5.90;99.90;;;;;;5091108;28;20046;-70
2023/01/29 12:01:37;;;;;;;36.20;23.90;;;5.90;99.90;;;;;;5076793;28;20146;-73
2023/01/29 12:04:14;;;;;;;31.48;20.85;;;5.90;99.90;;;;;;5093774;28;20438;-72
2023/01/29 12:06:47;;;;;;;29.15;20.92;;;5.90;99.90;;;;;;5092772;28;20051;-70
2023/01/29 12:09:18;;;;;;;28.05;20.38;;;5.90;99.90;;;;;;5108573;27;20052;-71
2023/01/29 12:11:44;;;;;;;34.13;21.98;;;5.90;99.90;;;;;;5093249;28;20115;-70
2023/01/29 12:14:32;;;;;;;31.77;22.25;;;6.10;99.90;;;;;;5089714;28;20588;-70
2023/01/29 12:17:12;;;;;;;30.02;21.65;;;6.10;99.90;;;;;;5092815;28;20710;-69
2023/01/29 12:19:54;;;;;;;33.33;22.50;;;6.10;99.90;;;;;;5091179;28;20047;-72
2023/01/29 12:22:23;;;;;;;29.17;20.70;;;6.10;99.90;;;;;;5090545;28;20039;-70
2023/01/29 12:25:00;;;;;;;26.92;19.30;;;6.60;99.90;;;;;;5092942;28;20052;-69
2023/01/29 12:27:38;;;;;;;34.08;21.45;;;6.10;99.90;;;;;;5089499;28;20805;-71
2023/01/29 12:30:19;;;;;;;28.90;19.73;;;6.20;99.90;;;;;;5087370;28;20051;-71
2023/01/29 12:33:13;;;;;;;29.33;21.27;;;6.10;99.90;;;;;;5090711;28;20051;-71
2023/01/29 12:35:48;;;;;;;25.45;20.67;;;6.10;99.90;;;;;;5093594;28;20051;-70
2023/01/29 12:38:19;;;;;;;26.10;18.95;;;6.10;99.90;;;;;;5094150;28;20131;-71
2023/01/29 12:40:57;;;;;;;29.38;20.33;;;6.10;99.90;;;;;;5091249;28;20549;-71
2023/01/29 12:43:43;;;;;;;24.27;18.67;;;6.00;99.90;;;;;;5092500;28;20044;-70
2023/01/29 12:46:23;;;;;;;28.58;20.65;;;6.00;99.90;;;;;;5092676;28;20051;-69
2023/01/29 12:48:53;;;;;;;28.33;20.00;;;6.10;99.90;;;;;;5078307;28;20051;-70
2023/01/29 12:51:24;;;;;;;27.13;18.92;;;6.00;99.90;;;;;;5092444;28;20086;-69
2023/01/29 12:54:07;;;;;;;27.05;19.48;;;6.10;99.90;;;;;;5094786;28;20390;-70
2023/01/29 12:57:02;;;;;;;23.98;19.27;;;6.00;99.90;;;;;;5094349;28;20097;-70
2023/01/29 12:59:35;;;;;;;23.77;18.08;;;6.00;99.90;;;;;;5084840;28;20055;-71
2023/01/29 13:02:27;;;;;;;27.08;18.67;;;6.00;99.90;;;;;;5088684;28;20052;-70
2023/01/29 13:05:18;;;;;;;25.20;18.65;;;6.00;99.90;;;;;;5093266;28;20047;-72
2023/01/29 13:07:50;;;;;;;23.15;18.73;;;6.00;99.90;;;;;;5092372;28;20051;-70
2023/01/29 13:10:20;;;;;;;24.13;18.40;;;6.10;99.90;;;;;;5090808;28;20055;-70
2023/01/29 13:13:04;;;;;;;25.33;19.73;;;6.00;99.90;;;;;;5092351;28;21045;-70
2023/01/29 13:15:35;;;;;;;21.42;17.38;;;6.00;99.90;;;;;;5091051;28;20044;-70
2023/01/29 13:18:15;;;;;;;30.23;19.13;;;6.00;99.90;;;;;;5086888;28;20051;-71
2023/01/29 13:20:43;;;;;;;27.88;18.83;;;6.00;99.90;;;;;;5091142;28;20651;-71
2023/01/29 13:23:30;;;;;;;25.70;17.52;;;6.00;99.90;;;;;;5096250;28;20047;-71
2023/01/29 13:25:56;;;;;;;26.88;18.80;;;5.90;99.90;;;;;;5093282;28;20852;-69
2023/01/29 13:28:25;;;;;;;24.63;18.38;;;5.90;99.90;;;;;;5093419;28;20040;-73
2023/01/29 13:31:17;;;;;;;35.80;18.88;;;5.90;99.90;;;;;;5079890;28;20079;-70
2023/01/29 13:33:50;;;;;;;30.80;19.27;;;6.00;99.90;;;;;;5083921;28;20169;-72